This is the latest recevied weather packets stored in our database for station/object WX6HNX-12. If no packets are shown the sender has not sent any weather packets the latest 10 day(s).
| Time | Temp. | Humidity | Pressure | Rain* | Wind** | Luminosity | Snow |
|---|---|---|---|---|---|---|---|
| 1777696954 | 20° C | 42% | 1011.2 hPa | 0 mm | - | - | - |
| 1777696653 | 20° C | 43% | 1011.1 hPa | 0 mm | - | - | - |
| 1777696353 | 20° C | 44% | 1011.1 hPa | 0 mm | - | - | - |
| 1777695754 | 20.56° C | 38% | 1010.9 hPa | 0 mm | - | - | - |
| 1777695453 | 21.11° C | 38% | 1010.8 hPa | 0 mm | - | - | - |
| 1777695154 | 21.67° C | 37% | 1010.7 hPa | 0 mm | - | - | - |
| 1777694854 | 21.67° C | 36% | 1010.7 hPa | 0 mm | - | - | - |
| 1777694553 | 21.67° C | 37% | 1010.6 hPa | 0 mm | - | - | - |
| 1777693953 | 22.22° C | 37% | 1010.5 hPa | 0 mm | - | - | - |
| 1777693654 | 22.22° C | 38% | 1010.4 hPa | 0 mm | - | - | - |
| 1777693353 | 22.22° C | 38% | 1010.3 hPa | 0 mm | - | - | - |
| 1777693054 | 22.22° C | 39% | 1010.3 hPa | 0 mm | - | - | - |
| 1777692753 | 22.78° C | 41% | 1010.2 hPa | 0 mm | - | - | - |
| 1777691916 | 23.89° C | 34% | 1010 hPa | 0 mm | - | - | - |
| 1777691617 | 24.44° C | 32% | 1009.9 hPa | 0 mm | - | - | - |
| 1777691318 | 25° C | 31% | 1009.9 hPa | 0 mm | - | - | - |
| 1777691018 | 26.11° C | 31% | 1009.8 hPa | 0 mm | - | - | - |
| 1777690717 | 26.67° C | 30% | 1009.7 hPa | 0 mm | - | - | - |
| 1777690417 | 26.67° C | 30% | 1009.6 hPa | 0 mm | - | - | - |
| 1777689817 | 27.78° C | 28% | 1009.5 hPa | 0 mm | - | - | - |
| 1777689517 | 28.33° C | 28% | 1009.5 hPa | 0 mm | - | - | - |
| 1777689216 | 28.89° C | 27% | 1009.5 hPa | 0 mm | - | - | - |
| 1777688918 | 29.44° C | 27% | 1009.5 hPa | 0 mm | - | - | - |
| 1777688618 | 30° C | 27% | 1009.4 hPa | 0 mm | - | - | - |
| 1777688316 | 30° C | 27% | 1009.3 hPa | 0 mm | - | - | - |
* Rain latest hour (hover to see other rain measurements)
** Current wind speed in m/s (hover to see current wind gust speed)